Time;durP1;ratioP1;P1;durP2;ratioP2;P2;SDS_P1;SDS_P2;PMS_P1;PMS_P2;Temp;Humidity;BMP_temperature;BMP_pressure;BME280_temperature;BME280_humidity;BME280_pressure;Samples;Min_cycle;Max_cycle;Signal;HPM_P1;HPM_P2
2022/07/14 00:01:38;;;;;;;3.80;2.78;;;;;;;12.17;96.10;95490.31;5035245;28;20037;-71
2022/07/14 00:04:06;;;;;;;4.13;3.25;;;;;;;12.12;96.14;95487.56;5042319;28;20037;-71
2022/07/14 00:06:34;;;;;;;3.53;2.97;;;;;;;12.03;96.27;95482.69;5035732;28;20048;-71
2022/07/14 00:09:01;;;;;;;4.88;3.17;;;;;;;12.03;97.13;95487.13;5038253;28;20045;-71
2022/07/14 00:11:28;;;;;;;4.00;2.88;;;;;;;12.04;96.92;95494.72;5017050;28;20046;-71
2022/07/14 00:13:58;;;;;;;13.77;3.75;;;;;;;12.03;96.42;95498.38;5022381;28;20128;-71
2022/07/14 00:16:26;;;;;;;4.18;3.00;;;;;;;12.01;95.92;95494.38;5023699;28;20044;-70
2022/07/14 00:18:53;;;;;;;8.45;3.22;;;;;;;12.03;95.95;95497.56;5045956;28;20056;-70
2022/07/14 00:21:28;;;;;;;7.35;2.78;;;;;;;12.00;95.79;95496.19;5044885;28;20201;-70
2022/07/14 00:23:55;;;;;;;11.43;3.45;;;;;;;12.01;95.59;95492.56;5039365;28;20033;-70
2022/07/14 00:26:22;;;;;;;6.57;3.20;;;;;;;12.00;95.68;95496.19;5046112;28;20056;-70
2022/07/14 00:28:54;;;;;;;4.00;2.65;;;;;;;11.98;96.20;95494.84;5054602;28;20044;-70
2022/07/14 00:31:25;;;;;;;5.88;3.08;;;;;;;11.88;96.36;95500.53;5036269;28;20070;-69
2022/07/14 00:33:52;;;;;;;5.18;2.90;;;;;;;11.87;96.37;95501.59;5053902;28;20032;-69
2022/07/14 00:36:23;;;;;;;12.50;4.20;;;;;;;11.83;96.76;95496.00;5050415;28;20053;-69
2022/07/14 00:38:50;;;;;;;5.00;3.10;;;;;;;11.73;96.84;95492.34;5038960;28;20055;-70
2022/07/14 00:41:17;;;;;;;3.65;3.03;;;;;;;11.77;96.93;95493.47;5039712;28;20045;-69
2022/07/14 00:43:44;;;;;;;2.78;2.53;;;;;;;11.61;97.37;95482.66;5016409;28;20059;-69
2022/07/14 00:46:11;;;;;;;4.00;3.25;;;;;;;11.58;97.84;95498.75;5040887;28;20049;-69
2022/07/14 00:48:38;;;;;;;6.85;3.65;;;;;;;11.49;98.15;95494.84;5016739;28;20131;-69
2022/07/14 00:51:05;;;;;;;5.32;3.35;;;;;;;11.37;99.03;95486.97;5032649;28;20079;-68
2022/07/14 00:53:33;;;;;;;5.90;3.42;;;;;;;11.38;99.70;95503.41;5019436;28;20033;-69
2022/07/14 00:56:00;;;;;;;4.28;3.55;;;;;;;11.28;100.00;95504.72;5034430;28;20029;-69
2022/07/14 00:58:27;;;;;;;5.68;4.03;;;;;;;11.26;100.00;95496.31;5033902;28;21486;-69
2022/07/14 01:00:54;;;;;;;5.88;3.25;;;;;;;11.11;100.00;95482.88;5038604;28;20101;-69
2022/07/14 01:03:21;;;;;;;4.47;3.22;;;;;;;11.14;100.00;95498.06;5022760;28;20053;-69
2022/07/14 01:05:48;;;;;;;6.35;3.20;;;;;;;11.10;100.00;95486.47;5038023;28;20394;-69
2022/07/14 01:08:15;;;;;;;5.25;3.63;;;;;;;11.06;100.00;95486.13;5038992;28;20028;-69
2022/07/14 01:10:42;;;;;;;4.22;3.20;;;;;;;11.03;100.00;95485.75;5037220;28;20038;-69
2022/07/14 01:13:18;;;;;;;6.95;3.65;;;;;;;10.99;100.00;95484.59;5040493;28;20041;-69
2022/07/14 01:15:47;;;;;;;5.38;3.70;;;;;;;10.97;100.00;95487.41;5037476;28;20446;-69
2022/07/14 01:18:17;;;;;;;4.38;3.40;;;;;;;10.80;100.00;95455.91;5039063;28;20041;-69
2022/07/14 01:20:45;;;;;;;8.18;4.53;;;;;;;10.95;100.00;95486.03;5040633;28;20665;-69
2022/07/14 01:23:11;;;;;;;4.55;3.03;;;;;;;10.93;100.00;95480.22;5041791;28;20049;-69
2022/07/14 01:25:47;;;;;;;5.00;3.55;;;;;;;10.88;100.00;95486.91;5038851;28;20041;-69
2022/07/14 01:28:22;;;;;;;9.13;3.50;;;;;;;10.84;100.00;95483.16;5022133;28;20052;-69
2022/07/14 01:30:49;;;;;;;3.38;2.92;;;;;;;10.86;100.00;95486.31;5017402;28;20045;-69
2022/07/14 01:33:16;;;;;;;6.45;3.83;;;;;;;10.83;100.00;95481.53;5039582;28;20037;-69
2022/07/14 01:35:44;;;;;;;4.60;3.50;;;;;;;10.84;100.00;95479.72;5041494;28;20108;-69
2022/07/14 01:38:11;;;;;;;5.82;3.80;;;;;;;10.83;100.00;95470.31;5040629;28;20207;-69
2022/07/14 01:40:38;;;;;;;3.95;3.20;;;;;;;10.81;100.00;95473.13;5019101;28;20052;-69
2022/07/14 01:43:08;;;;;;;3.15;2.85;;;;;;;10.83;100.00;95462.50;5022121;28;20052;-70
2022/07/14 01:45:39;;;;;;;13.20;3.30;;;;;;;10.79;100.00;95469.97;5037687;28;20048;-70
2022/07/14 01:48:06;;;;;;;5.40;4.32;;;;;;;10.72;100.00;95466.63;5045694;28;20529;-70
2022/07/14 01:50:33;;;;;;;3.55;3.17;;;;;;;10.64;100.00;95464.28;5029884;28;20507;-70
2022/07/14 01:53:01;;;;;;;6.60;3.63;;;;;;;10.65;100.00;95448.44;5024868;28;20591;-70
2022/07/14 01:55:28;;;;;;;4.60;3.20;;;;;;;10.72;100.00;95464.03;5018822;28;20058;-70
2022/07/14 01:57:55;;;;;;;4.70;3.70;;;;;;;10.65;100.00;95458.88;5032949;28;20041;-70
2022/07/14 02:00:22;;;;;;;4.10;3.25;;;;;;;10.59;100.00;95458.91;5022716;28;20457;-70
2022/07/14 02:02:58;;;;;;;4.03;3.63;;;;;;;10.57;100.00;95461.75;5024181;28;20048;-70
2022/07/14 02:05:32;;;;;;;5.18;3.97;;;;;;;10.48;100.00;95453.44;5023128;28;20037;-70
2022/07/14 02:07:59;;;;;;;8.63;3.40;;;;;;;10.56;100.00;95464.59;5004450;28;20064;-70
2022/07/14 02:13:18;;;;;;;10.65;3.95;;;;;;;10.54;100.00;95466.59;5041828;28;20046;-71
2022/07/14 02:15:46;;;;;;;6.97;3.95;;;;;;;10.51;100.00;95468.63;5024952;28;20055;-71
2022/07/14 02:18:27;;;;;;;4.32;3.50;;;;;;;10.57;100.00;95471.38;5049784;28;20053;-71
2022/07/14 02:20:54;;;;;;;8.35;3.75;;;;;;;10.60;100.00;95463.13;5013939;28;20083;-69
2022/07/14 02:23:23;;;;;;;5.75;3.72;;;;;;;10.62;100.00;95468.91;5028774;28;20050;-70
2022/07/14 02:25:50;;;;;;;5.43;3.95;;;;;;;10.57;100.00;95473.97;5029114;28;20051;-72
2022/07/14 02:28:23;;;;;;;4.28;3.55;;;;;;;10.54;100.00;95472.59;5012977;28;20140;-71
2022/07/14 02:31:03;;;;;;;4.23;3.23;;;;;;;10.37;100.00;95474.97;5035355;28;20049;-72
2022/07/14 02:33:30;;;;;;;6.10;3.78;;;;;;;10.22;100.00;95484.88;5050295;28;20522;-72
2022/07/14 02:35:58;;;;;;;4.35;3.60;;;;;;;10.20;100.00;95481.69;5054666;28;20033;-70
2022/07/14 02:38:24;;;;;;;3.72;3.08;;;;;;;10.20;100.00;95486.88;5035187;28;20057;-70
2022/07/14 02:40:52;;;;;;;3.92;3.42;;;;;;;10.11;100.00;95487.13;5035424;28;20045;-69
2022/07/14 02:43:21;;;;;;;4.68;3.78;;;;;;;9.97;100.00;95480.41;5013636;28;20106;-72
2022/07/14 02:45:49;;;;;;;6.75;3.55;;;;;;;9.89;100.00;95480.69;5025180;28;20571;-70
2022/07/14 02:48:17;;;;;;;4.57;3.55;;;;;;;9.83;100.00;95482.34;5025335;28;20587;-70
2022/07/14 02:50:45;;;;;;;5.40;4.55;;;;;;;9.80;100.00;95484.56;5019849;28;20045;-70
2022/07/14 02:53:12;;;;;;;5.10;3.80;;;;;;;9.80;100.00;95481.97;5014751;28;20053;-70
2022/07/14 02:55:44;;;;;;;4.25;3.50;;;;;;;9.86;100.00;95488.91;5021500;28;20128;-70
2022/07/14 02:58:11;;;;;;;4.75;4.22;;;;;;;9.85;100.00;95489.91;5018279;28;20102;-70
2022/07/14 03:00:39;;;;;;;4.85;4.00;;;;;;;9.81;100.00;95493.94;5022732;28;20193;-72
2022/07/14 03:03:09;;;;;;;10.95;3.75;;;;;;;9.73;100.00;95493.19;5022037;28;20139;-71
2022/07/14 03:05:36;;;;;;;6.72;3.63;;;;;;;9.67;100.00;95491.44;5040329;28;20036;-71
2022/07/14 03:08:04;;;;;;;7.90;4.38;;;;;;;9.54;100.00;95486.28;5000943;28;20048;-71
2022/07/14 03:10:32;;;;;;;6.00;3.92;;;;;;;9.63;100.00;95498.03;5029933;28;20481;-70
2022/07/14 03:13:00;;;;;;;6.70;4.53;;;;;;;9.65;100.00;95501.25;5031981;28;20522;-70
2022/07/14 03:15:40;;;;;;;5.32;4.40;;;;;;;9.63;100.00;95508.44;5050384;28;20472;-70
2022/07/14 03:18:07;;;;;;;8.68;4.75;;;;;;;9.56;100.00;95502.47;5016464;28;20056;-70
2022/07/14 03:20:39;;;;;;;7.32;5.07;;;;;;;9.54;100.00;95507.91;5031702;28;20051;-70
2022/07/14 03:23:06;;;;;;;4.57;3.80;;;;;;;9.47;100.00;95504.53;5026670;28;20044;-70
2022/07/14 03:25:33;;;;;;;6.78;4.40;;;;;;;9.52;100.00;95501.28;5024140;28;20046;-70
2022/07/14 03:28:03;;;;;;;4.25;3.83;;;;;;;9.54;100.00;95499.28;5038419;28;20052;-70
2022/07/14 03:30:35;;;;;;;3.70;3.40;;;;;;;9.58;100.00;95521.28;5018276;28;20111;-70
2022/07/14 03:33:03;;;;;;;6.25;3.92;;;;;;;9.65;100.00;95516.84;5038430;28;20162;-70
2022/07/14 03:35:30;;;;;;;5.22;3.83;;;;;;;9.70;100.00;95518.81;5036712;28;20069;-70
2022/07/14 03:37:57;;;;;;;4.60;3.75;;;;;;;9.80;100.00;95518.38;5040088;28;20281;-71
2022/07/14 03:41:19;;;;;;;5.43;3.80;;;;;;;9.93;100.00;95518.28;5006046;28;20045;-70
2022/07/14 03:43:46;;;;;;;5.13;3.63;;;;;;;9.83;100.00;95508.34;5012755;28;20132;-70
2022/07/14 03:46:15;;;;;;;5.70;3.35;;;;;;;10.02;100.00;95527.44;5011746;28;20128;-70
2022/07/14 03:49:03;;;;;;;4.43;3.70;;;;;;;10.19;100.00;95522.53;5012170;28;20037;-70
2022/07/14 03:51:32;;;;;;;7.05;4.03;;;;;;;10.33;100.00;95528.47;5015945;28;20055;-71
2022/07/14 03:53:59;;;;;;;12.10;4.32;;;;;;;10.48;100.00;95531.56;5017534;28;20063;-70
2022/07/14 03:56:37;;;;;;;6.28;3.65;;;;;;;10.58;100.00;95525.06;5020384;28;20050;-70
2022/07/14 03:59:04;;;;;;;5.82;3.20;;;;;;;10.74;100.00;95514.09;5017443;28;20052;-70
2022/07/14 04:01:31;;;;;;;11.15;3.20;;;;;;;10.87;100.00;95529.59;5040085;28;20109;-70
2022/07/14 04:04:03;;;;;;;4.65;3.92;;;;;;;10.97;100.00;95529.13;5017235;28;20132;-70
2022/07/14 04:06:31;;;;;;;5.70;3.38;;;;;;;11.16;100.00;95524.69;5019349;28;20073;-70
2022/07/14 04:09:00;;;;;;;8.38;4.20;;;;;;;11.23;100.00;95522.81;5034345;28;20052;-70
2022/07/14 04:11:29;;;;;;;12.50;5.93;;;;;;;11.49;100.00;95533.97;5018326;28;20040;-70
2022/07/14 04:13:57;;;;;;;7.40;3.50;;;;;;;11.58;100.00;95524.84;5019188;28;20053;-71
2022/07/14 04:16:24;;;;;;;7.40;3.20;;;;;;;11.81;100.00;95512.88;5030870;28;20056;-70
2022/07/14 04:18:52;;;;;;;6.38;3.30;;;;;;;11.96;100.00;95523.75;5021594;28;20048;-71
2022/07/14 04:21:20;;;;;;;5.00;3.00;;;;;;;12.13;100.00;95525.75;5028911;28;20770;-70
2022/07/14 04:23:47;;;;;;;11.23;3.83;;;;;;;12.31;100.00;95530.88;5015044;28;20033;-70
2022/07/14 04:26:20;;;;;;;7.03;3.30;;;;;;;12.52;100.00;95531.38;5018077;28;20057;-70
2022/07/14 04:28:47;;;;;;;3.30;2.90;;;;;;;12.67;99.33;95531.72;5015211;28;20052;-70
2022/07/14 04:31:14;;;;;;;6.00;3.25;;;;;;;12.75;98.28;95538.47;5037937;28;20592;-69
2022/07/14 04:33:42;;;;;;;8.68;2.90;;;;;;;12.91;97.60;95545.63;5036156;28;20071;-69
2022/07/14 04:36:09;;;;;;;3.20;2.92;;;;;;;13.01;96.96;95542.41;5034243;28;20127;-69
2022/07/14 04:38:37;;;;;;;5.30;3.00;;;;;;;13.20;95.98;95546.50;5012651;28;20044;-69
2022/07/14 04:41:04;;;;;;;7.78;3.50;;;;;;;13.34;96.05;95535.81;5014729;28;20053;-68
2022/07/14 04:43:36;;;;;;;8.82;3.22;;;;;;;13.47;95.56;95546.03;5020108;28;20073;-69
2022/07/14 04:46:05;;;;;;;4.78;3.95;;;;;;;13.62;94.88;95552.59;5015550;28;20064;-69
2022/07/14 04:54:09;;;;;;;6.55;3.08;;;;;;;13.68;94.91;95551.66;5032973;28;20048;-69
2022/07/14 04:57:00;;;;;;;5.93;3.80;;;;;;;13.67;94.79;95561.34;5030192;28;20056;-69
2022/07/14 04:59:34;;;;;;;6.68;3.90;;;;;;;13.70;94.17;95560.06;5013755;28;20045;-69
2022/07/14 05:02:01;;;;;;;8.32;4.03;;;;;;;13.85;93.20;95556.97;5000077;28;20544;-70
2022/07/14 05:04:29;;;;;;;5.78;3.45;;;;;;;14.07;92.22;95562.34;5019359;28;20056;-70
2022/07/14 05:07:11;;;;;;;4.18;3.55;;;;;;;14.22;91.33;95567.84;5023592;28;20041;-70
2022/07/14 05:09:43;;;;;;;5.05;3.10;;;;;;;14.31;89.11;95549.91;5010866;28;20073;-70
2022/07/14 05:12:13;;;;;;;4.93;2.65;;;;;;;14.50;89.71;95558.38;5017291;28;20049;-70
2022/07/14 05:14:47;;;;;;;5.22;3.45;;;;;;;14.68;87.24;95566.03;5008176;28;20048;-70
2022/07/14 05:17:15;;;;;;;3.63;3.00;;;;;;;14.71;84.58;95549.81;5009935;28;20049;-70
2022/07/14 05:19:51;;;;;;;3.47;2.70;;;;;;;14.95;84.57;95564.59;5010271;28;20442;-70
2022/07/14 05:22:19;;;;;;;8.43;2.78;;;;;;;15.09;83.70;95556.13;5021149;28;20115;-71
2022/07/14 05:24:46;;;;;;;3.08;2.65;;;;;;;15.24;83.51;95563.41;5017930;28;20543;-71
2022/07/14 05:27:13;;;;;;;3.55;2.38;;;;;;;15.43;82.68;95557.88;5036412;28;20180;-71
2022/07/14 05:29:42;;;;;;;4.93;2.67;;;;;;;15.48;81.10;95557.94;5025458;28;20144;-71
2022/07/14 05:32:10;;;;;;;8.82;4.68;;;;;;;15.68;81.03;95573.16;5017103;28;20045;-70
2022/07/14 05:34:42;;;;;;;8.50;4.55;;;;;;;15.84;81.28;95561.81;5018770;28;20041;-70
2022/07/14 05:37:12;;;;;;;3.88;3.15;;;;;;;16.01;79.69;95561.75;5003616;28;20038;-69
2022/07/14 05:39:41;;;;;;;4.90;2.47;;;;;;;16.09;78.50;95563.13;5035658;28;20047;-69
2022/07/14 05:42:08;;;;;;;5.13;2.50;;;;;;;16.33;76.56;95570.72;5019263;28;20040;-70
2022/07/14 05:44:36;;;;;;;3.65;2.97;;;;;;;16.35;75.86;95566.00;5038962;28;20051;-70
2022/07/14 05:47:04;;;;;;;9.65;2.83;;;;;;;16.40;76.70;95563.41;5014395;28;20049;-69
2022/07/14 05:49:34;;;;;;;3.05;2.75;;;;;;;16.53;75.36;95568.28;5018437;28;20492;-69
2022/07/14 05:52:16;;;;;;;6.95;2.83;;;;;;;16.73;75.22;95570.28;5016729;28;20043;-70
2022/07/14 05:54:58;;;;;;;2.50;2.30;;;;;;;16.81;74.23;95571.66;5033065;28;20048;-68
2022/07/14 05:57:24;;;;;;;6.15;2.90;;;;;;;17.04;74.06;95567.13;5017480;28;20041;-69
2022/07/14 06:00:00;;;;;;;4.50;2.50;;;;;;;17.22;73.70;95564.06;5031874;28;20564;-70
2022/07/14 06:02:29;;;;;;;9.52;2.60;;;;;;;17.38;74.02;95563.09;5035980;28;20052;-70
2022/07/14 06:04:56;;;;;;;4.57;2.47;;;;;;;17.53;73.50;95559.75;5043772;28;20052;-69
2022/07/14 06:07:23;;;;;;;3.65;2.60;;;;;;;17.74;71.91;95560.63;5009200;28;20076;-69
2022/07/14 06:09:52;;;;;;;3.60;2.42;;;;;;;17.79;70.30;95554.59;5012585;28;20796;-69
2022/07/14 06:12:22;;;;;;;6.70;2.50;;;;;;;17.95;70.52;95563.34;5015509;28;20049;-70
2022/07/14 06:14:49;;;;;;;3.70;2.47;;;;;;;18.06;69.68;95559.69;5019666;28;20094;-70
2022/07/14 06:17:16;;;;;;;4.20;2.17;;;;;;;18.15;68.44;95560.78;5029904;28;20849;-68
2022/07/14 06:19:44;;;;;;;3.42;2.25;;;;;;;18.24;67.70;95562.88;5012258;28;20057;-68
2022/07/14 06:22:11;;;;;;;6.03;2.25;;;;;;;18.45;67.15;95558.44;5028003;28;20053;-69
2022/07/14 06:24:40;;;;;;;2.25;1.83;;;;;;;18.54;61.54;95556.84;5011551;28;20061;-69
2022/07/14 06:27:16;;;;;;;3.38;1.88;;;;;;;18.50;61.81;95561.09;5016063;28;20049;-68
2022/07/14 06:29:45;;;;;;;2.47;1.70;;;;;;;18.60;62.23;95549.72;5027188;28;20098;-70
2022/07/14 06:32:12;;;;;;;4.40;1.70;;;;;;;18.71;57.83;95546.84;5017718;28;20056;-69
2022/07/14 06:34:41;;;;;;;3.08;1.70;;;;;;;18.88;57.82;95543.94;5019317;28;20136;-70
2022/07/14 06:37:28;;;;;;;1.50;1.40;;;;;;;18.85;56.53;95547.13;5033534;28;20470;-68
2022/07/14 06:39:55;;;;;;;1.40;1.02;;;;;;;18.83;57.44;95541.31;5014808;28;20238;-70
2022/07/14 06:42:23;;;;;;;3.08;1.33;;;;;;;19.12;57.05;95543.38;5012104;28;20064;-69
2022/07/14 06:45:22;;;;;;;3.03;1.85;;;;;;;19.20;58.40;95548.13;5028702;28;20655;-69
2022/07/14 06:47:52;;;;;;;4.88;1.70;;;;;;;19.24;59.35;95538.59;5013804;28;20592;-70
2022/07/14 06:50:20;;;;;;;2.22;1.73;;;;;;;19.25;58.22;95542.84;5036399;28;20627;-71
2022/07/14 06:52:46;;;;;;;3.35;1.92;;;;;;;19.34;59.44;95537.00;5035808;28;21371;-70
2022/07/14 06:55:13;;;;;;;2.92;1.40;;;;;;;19.53;58.15;95543.25;5061856;28;20089;-72
2022/07/14 06:57:41;;;;;;;3.53;1.80;;;;;;;19.63;58.07;95539.81;5046140;28;20041;-72
2022/07/14 07:00:08;;;;;;;6.20;2.22;;;;;;;19.66;59.25;95534.78;5038633;28;20045;-70
2022/07/14 07:02:36;;;;;;;7.68;2.35;;;;;;;19.74;57.62;95530.03;5030275;28;20719;-72
2022/07/14 07:07:51;;;;;;;6.00;2.00;;;;;;;19.93;57.42;95536.25;5041755;28;20536;-70
2022/07/14 07:10:25;;;;;;;5.03;1.80;;;;;;;20.12;58.85;95530.34;5030731;28;20545;-71
2022/07/14 07:12:53;;;;;;;9.30;2.00;;;;;;;20.28;58.03;95523.09;5036728;28;20041;-71
2022/07/14 07:15:21;;;;;;;9.05;1.80;;;;;;;20.44;56.78;95522.69;5033597;28;20044;-71
2022/07/14 07:17:49;;;;;;;4.53;1.80;;;;;;;20.60;56.93;95527.88;5030751;28;20045;-71
2022/07/14 07:20:16;;;;;;;5.25;1.92;;;;;;;20.71;56.41;95526.75;5031980;28;20527;-69
2022/07/14 07:22:42;;;;;;;4.60;1.75;;;;;;;20.80;55.65;95522.44;5033197;28;20052;-69
2022/07/14 07:25:12;;;;;;;4.47;1.85;;;;;;;21.03;57.75;95528.06;5034150;28;20041;-68
2022/07/14 07:27:39;;;;;;;4.38;2.47;;;;;;;21.07;55.95;95513.19;5044840;28;20156;-68
2022/07/14 07:30:13;;;;;;;3.25;1.60;;;;;;;21.13;54.40;95517.34;5036983;28;20311;-68
2022/07/14 07:32:43;;;;;;;7.38;1.42;;;;;;;21.15;54.81;95520.50;5023379;28;20056;-69
2022/07/14 07:35:10;;;;;;;3.88;1.38;;;;;;;21.14;56.73;95518.94;5017810;28;20052;-67
2022/07/14 07:37:37;;;;;;;5.28;1.90;;;;;;;21.29;54.77;95520.63;5038438;28;20052;-70
2022/07/14 07:40:05;;;;;;;6.93;1.85;;;;;;;21.48;53.66;95518.06;5035672;28;20041;-68
2022/07/14 07:42:32;;;;;;;3.97;1.90;;;;;;;21.52;51.04;95519.06;5038073;28;20136;-68
2022/07/14 07:45:00;;;;;;;7.80;1.83;;;;;;;21.48;50.88;95523.38;5043407;28;20045;-70
2022/07/14 07:47:27;;;;;;;2.70;1.30;;;;;;;21.68;52.71;95513.56;5049363;28;20040;-70
2022/07/14 07:49:54;;;;;;;12.30;1.65;;;;;;;21.71;52.36;95515.66;5048105;28;20055;-71
2022/07/14 07:52:23;;;;;;;7.53;1.50;;;;;;;21.96;52.66;95512.66;5045999;28;20056;-69
2022/07/14 07:54:50;;;;;;;7.40;1.58;;;;;;;22.10;51.71;95518.06;5040059;28;20053;-70
2022/07/14 07:57:37;;;;;;;4.80;1.25;;;;;;;22.09;49.61;95515.69;5034839;28;20518;-70
2022/07/14 08:00:06;;;;;;;9.07;1.45;;;;;;;22.31;49.73;95515.94;5039269;28;20433;-70
2022/07/14 08:02:52;;;;;;;4.63;1.65;;;;;;;22.40;48.52;95509.94;5031741;28;20135;-71
2022/07/14 08:05:24;;;;;;;5.63;1.27;;;;;;;22.53;49.53;95499.38;5043527;28;20051;-70
2022/07/14 08:08:12;;;;;;;3.75;1.40;;;;;;;22.74;48.81;95496.38;5041897;28;20270;-70
2022/07/14 08:10:39;;;;;;;3.88;1.67;;;;;;;22.81;48.23;95488.03;5038761;28;20044;-71
2022/07/14 08:13:07;;;;;;;1.77;1.42;;;;;;;22.81;46.60;95498.66;5035492;28;20047;-71
2022/07/14 08:15:35;;;;;;;1.80;1.20;;;;;;;22.92;49.24;95500.06;5019607;28;20809;-71
2022/07/14 08:18:02;;;;;;;6.40;1.10;;;;;;;23.09;47.07;95499.53;5037533;28;20063;-71
2022/07/14 08:20:30;;;;;;;6.38;1.10;;;;;;;23.31;45.78;95498.84;5040683;28;20053;-70
2022/07/14 08:22:57;;;;;;;2.88;1.08;;;;;;;23.50;46.48;95500.59;5023466;28;20145;-71
2022/07/14 08:25:25;;;;;;;2.58;1.20;;;;;;;23.66;44.33;95485.94;5036365;28;20618;-71
2022/07/14 08:27:52;;;;;;;3.72;0.90;;;;;;;23.76;43.44;95496.34;5035436;28;20044;-71
2022/07/14 08:30:20;;;;;;;3.60;1.30;;;;;;;23.86;42.58;95490.06;5039948;28;20662;-70
2022/07/14 08:32:49;;;;;;;2.42;1.58;;;;;;;24.03;41.93;95494.75;5035134;28;20060;-71
2022/07/14 08:35:20;;;;;;;1.58;0.85;;;;;;;24.21;42.44;95485.78;5038057;28;20049;-71
2022/07/14 08:37:47;;;;;;;4.38;1.70;;;;;;;24.41;42.62;95478.44;5033092;28;20041;-71
2022/07/14 08:40:19;;;;;;;4.00;1.48;;;;;;;24.46;42.21;95467.66;5035731;28;20045;-71
2022/07/14 08:42:50;;;;;;;6.03;1.43;;;;;;;24.53;41.33;95478.69;5045435;28;20106;-72
2022/07/14 08:45:21;;;;;;;4.90;1.33;;;;;;;24.75;41.83;95474.44;5033437;28;20455;-72
2022/07/14 08:47:49;;;;;;;5.22;1.65;;;;;;;24.91;41.27;95475.59;5031740;28;20056;-71
2022/07/14 10:17:14;;;;;;;2.55;0.90;;;;;;;27.82;32.36;95397.16;4986015;28;20121;-70
2022/07/14 10:19:41;;;;;;;3.03;0.90;;;;;;;27.69;31.59;95416.16;4990697;28;20046;-69
2022/07/14 10:22:09;;;;;;;1.80;1.17;;;;;;;27.78;31.22;95411.50;4996187;28;20045;-69
2022/07/14 10:24:36;;;;;;;4.00;1.65;;;;;;;27.65;32.09;95408.78;4988944;28;20050;-70
2022/07/14 10:27:05;;;;;;;4.00;1.10;;;;;;;27.72;31.11;95402.13;4997203;28;20043;-69
2022/07/14 10:29:32;;;;;;;2.40;0.80;;;;;;;27.81;31.37;95394.81;5007291;28;20037;-70
2022/07/14 10:32:11;;;;;;;18.05;2.03;;;;;;;28.54;30.41;95388.19;4990849;28;20184;-68
2022/07/14 10:34:52;;;;;;;0.88;0.75;;;;;;;29.27;28.95;95386.69;4985036;28;20046;-69
2022/07/14 10:37:30;;;;;;;3.40;1.00;;;;;;;29.66;27.82;95397.78;4990498;28;20053;-69
2022/07/14 10:40:15;;;;;;;6.22;1.48;;;;;;;30.22;27.61;95392.44;4992801;28;20049;-69
2022/07/14 10:43:31;;;;;;;5.25;0.73;;;;;;;30.74;26.87;95395.31;4987962;28;20077;-69
2022/07/14 10:45:58;;;;;;;2.85;0.98;;;;;;;30.71;25.51;95379.88;4971619;28;20046;-69
2022/07/14 10:48:32;;;;;;;2.08;1.10;;;;;;;29.97;26.68;95385.63;4986210;28;20519;-69
2022/07/14 10:51:14;;;;;;;4.50;0.90;;;;;;;30.12;26.41;95376.81;4979155;28;20595;-69
2022/07/14 10:54:09;;;;;;;1.83;1.10;;;;;;;30.49;27.36;95379.34;4980732;28;20050;-68
2022/07/14 10:57:16;;;;;;;4.03;0.95;;;;;;;30.77;25.48;95378.47;4980515;28;20034;-68
2022/07/14 10:59:44;;;;;;;1.85;0.95;;;;;;;30.53;26.00;95369.47;4984586;28;20167;-68
2022/07/14 11:05:02;;;;;;;2.20;0.80;;;;;;;29.93;26.19;95369.44;4984237;28;20126;-68
2022/07/14 11:07:33;;;;;;;0.88;0.63;;;;;;;30.50;26.08;95375.53;4982529;28;20072;-69
2022/07/14 11:10:03;;;;;;;2.70;0.88;;;;;;;31.06;25.60;95370.00;4986095;28;20161;-68
2022/07/14 11:12:30;;;;;;;1.83;0.65;;;;;;;31.49;25.50;95374.78;4978833;28;20046;-68
2022/07/14 11:14:58;;;;;;;3.55;1.00;;;;;;;31.93;24.88;95374.53;4986475;28;20042;-68
2022/07/14 11:17:37;;;;;;;1.67;0.93;;;;;;;32.37;25.24;95374.19;5035866;28;20056;-68
2022/07/14 11:20:08;;;;;;;5.85;1.00;;;;;;;32.67;23.85;95376.28;5032508;28;20041;-68
2022/07/14 11:22:37;;;;;;;4.82;1.00;;;;;;;32.81;24.43;95365.72;5039791;28;20037;-68
2022/07/14 11:25:04;;;;;;;2.70;0.60;;;;;;;32.96;22.97;95367.50;5033193;28;20053;-68
2022/07/14 11:27:48;;;;;;;11.27;0.73;;;;;;;32.08;23.22;95368.28;5031330;28;20045;-68
2022/07/14 11:30:19;;;;;;;2.40;1.00;;;;;;;31.12;24.23;95367.03;5036167;28;20041;-68
2022/07/14 11:32:59;;;;;;;3.63;1.05;;;;;;;31.23;24.65;95362.69;5016054;28;20274;-68
2022/07/14 11:39:20;;;;;;;2.35;0.77;;;;;;;32.03;23.05;95360.47;5020913;28;20680;-67
2022/07/14 11:42:04;;;;;;;3.38;1.00;;;;;;;32.69;24.84;95349.75;5037153;28;20053;-68
2022/07/14 11:44:35;;;;;;;0.70;0.30;;;;;;;33.31;20.77;95350.31;5029125;28;20049;-69
2022/07/14 11:47:07;;;;;;;0.93;0.32;;;;;;;33.58;19.35;95355.63;5034870;28;20065;-69
2022/07/14 11:49:36;;;;;;;1.75;0.50;;;;;;;34.02;21.12;95338.81;5035116;28;20041;-68
2022/07/14 11:52:05;;;;;;;6.38;0.75;;;;;;;34.43;21.28;95346.19;5030009;28;20058;-68
2022/07/14 11:54:34;;;;;;;0.40;0.20;;;;;;;34.22;20.55;95349.47;5035878;28;20040;-69
2022/07/14 11:57:09;;;;;;;2.10;0.70;;;;;;;34.45;19.75;95344.66;5032193;28;20037;-69
2022/07/14 11:59:41;;;;;;;0.77;0.40;;;;;;;34.93;20.25;95356.66;5029149;28;20052;-70
2022/07/14 12:02:16;;;;;;;2.20;0.50;;;;;;;35.49;19.46;95350.09;5030397;28;20041;-70
2022/07/14 12:04:55;;;;;;;4.82;0.20;;;;;;;35.80;19.20;95347.91;5036740;28;20041;-70
2022/07/14 12:07:47;;;;;;;2.38;0.45;;;;;;;36.25;19.61;95345.72;5031541;28;20041;-70
2022/07/14 12:10:16;;;;;;;1.05;0.30;;;;;;;36.04;18.21;95334.81;5034688;28;20056;-70
2022/07/14 12:12:47;;;;;;;1.33;0.30;;;;;;;36.20;18.97;95335.25;5035655;28;20048;-69
2022/07/14 12:15:24;;;;;;;1.00;0.60;;;;;;;36.57;18.89;95339.53;5039406;28;20060;-69
2022/07/14 12:17:54;;;;;;;1.95;0.52;;;;;;;36.73;17.96;95337.28;5034927;28;20834;-69
2022/07/14 12:20:22;;;;;;;1.50;0.70;;;;;;;36.50;16.99;95334.91;5041135;28;20056;-69
2022/07/14 12:22:56;;;;;;;1.13;0.30;;;;;;;35.97;17.90;95336.34;5035061;28;20044;-69
2022/07/14 12:25:30;;;;;;;1.67;0.47;;;;;;;35.84;18.06;95329.72;5035529;28;20049;-69
2022/07/14 12:28:04;;;;;;;3.97;0.60;;;;;;;35.65;19.13;95330.00;5038073;28;20048;-69
2022/07/14 12:30:49;;;;;;;3.08;0.30;;;;;;;35.99;19.92;95333.25;5039249;28;20041;-69
2022/07/14 12:33:20;;;;;;;0.65;0.35;;;;;;;35.88;18.56;95333.22;5036268;28;20048;-69
2022/07/14 12:35:51;;;;;;;4.30;0.70;;;;;;;35.89;19.30;95323.94;5040268;28;20044;-70
2022/07/14 12:38:19;;;;;;;1.52;0.68;;;;;;;35.70;19.40;95324.25;5036830;28;20133;-70
2022/07/14 12:40:49;;;;;;;6.25;0.43;;;;;;;35.87;18.05;95320.84;5038824;28;20063;-70
2022/07/14 12:43:21;;;;;;;0.70;0.35;;;;;;;36.65;17.43;95330.25;5034555;28;20048;-69
2022/07/14 12:46:11;;;;;;;2.45;0.60;;;;;;;37.17;17.45;95327.16;5034204;28;20056;-70
2022/07/14 12:48:51;;;;;;;1.02;0.40;;;;;;;37.06;17.35;95320.91;5035244;28;20048;-70
2022/07/14 12:51:19;;;;;;;1.33;0.47;;;;;;;37.18;16.93;95317.81;5018406;28;20063;-70
2022/07/14 12:54:12;;;;;;;1.35;0.47;;;;;;;37.36;17.42;95320.50;5035462;28;20069;-70
2022/07/14 12:56:45;;;;;;;1.80;0.65;;;;;;;37.14;17.62;95327.13;5035161;28;20186;-69
2022/07/14 12:59:19;;;;;;;1.05;0.28;;;;;;;37.35;17.56;95321.66;5039477;28;20140;-70
2022/07/14 13:02:01;;;;;;;0.47;0.28;;;;;;;37.14;16.90;95327.13;5039205;28;20048;-69
2022/07/14 13:04:31;;;;;;;4.13;0.50;;;;;;;37.57;16.70;95316.16;5039453;28;20045;-69
2022/07/14 13:07:24;;;;;;;2.83;0.50;;;;;;;37.95;16.92;95316.41;5039179;28;21304;-70
2022/07/14 13:10:14;;;;;;;1.88;0.45;;;;;;;37.82;16.16;95311.41;5034135;28;20107;-70
2022/07/14 13:12:46;;;;;;;2.65;0.50;;;;;;;38.23;15.97;95324.41;5037971;28;20091;-70
2022/07/14 13:15:27;;;;;;;1.88;0.35;;;;;;;37.65;16.09;95302.19;5033655;28;20045;-70
2022/07/14 13:18:00;;;;;;;2.78;0.30;;;;;;;37.56;16.83;95307.22;5028000;28;20041;-69
2022/07/14 13:20:47;;;;;;;1.00;0.55;;;;;;;37.50;15.92;95300.66;5023747;28;20074;-69
2022/07/14 13:23:26;;;;;;;3.00;0.40;;;;;;;37.59;17.41;95302.94;5019583;28;20040;-70
2022/07/14 13:25:55;;;;;;;0.88;0.40;;;;;;;37.36;16.39;95285.19;5030973;28;20175;-70
2022/07/14 13:28:46;;;;;;;3.67;0.20;;;;;;;37.51;16.83;95296.78;5033331;28;20049;-69
2022/07/14 13:31:18;;;;;;;4.55;0.85;;;;;;;37.94;16.67;95301.25;5039322;28;20037;-70
2022/07/14 13:33:48;;;;;;;1.25;0.40;;;;;;;38.05;16.60;95274.78;5048797;28;20041;-71
2022/07/14 13:36:17;;;;;;;4.35;0.80;;;;;;;37.82;16.74;95289.66;5035190;28;20052;-71